createdAt,value
2023-03-25T00:01:15.564Z,47.03
2023-03-25T00:03:51.026Z,47.34
2023-03-25T00:06:20.253Z,47.12
2023-03-25T00:08:49.778Z,47.47
2023-03-25T00:11:17.495Z,46.84
2023-03-25T00:13:45.921Z,47.39
2023-03-25T00:16:16.820Z,46.98
2023-03-25T00:18:48.054Z,47.13
2023-03-25T00:21:15.877Z,47.21
2023-03-25T00:23:43.407Z,47.10
2023-03-25T00:26:11.206Z,46.51
2023-03-25T00:28:39.614Z,47.46
2023-03-25T00:31:11.179Z,46.53
2023-03-25T00:33:42.003Z,46.79
2023-03-25T00:36:14.639Z,46.93
2023-03-25T00:38:43.946Z,47.40
2023-03-25T00:41:25.994Z,47.64
2023-03-25T00:43:56.165Z,47.81
2023-03-25T00:46:31.630Z,47.81
2023-03-25T00:49:01.975Z,48.30
2023-03-25T00:51:32.888Z,47.95
2023-03-25T00:54:00.821Z,48.05
2023-03-25T00:56:30.393Z,48.29
2023-03-25T00:58:58.430Z,47.78
2023-03-25T01:01:28.792Z,47.51
2023-03-25T01:03:59.401Z,48.28
2023-03-25T01:06:34.971Z,49.22
2023-03-25T01:09:05.893Z,48.63
2023-03-25T01:11:35.366Z,48.63
2023-03-25T01:14:05.485Z,48.18
2023-03-25T01:16:34.882Z,49.04
2023-03-25T01:19:03.381Z,50.54
2023-03-25T01:21:33.964Z,51.70
2023-03-25T01:24:01.563Z,52.08
2023-03-25T01:26:29.666Z,52.06
2023-03-25T01:28:59.851Z,50.84
2023-03-25T01:31:30.571Z,51.69
2023-03-25T01:33:59.908Z,50.79
2023-03-25T01:36:31.524Z,51.48
2023-03-25T01:39:01.601Z,51.97
2023-03-25T01:41:42.250Z,51.66
2023-03-25T01:44:20.714Z,52.12
2023-03-25T01:46:53.645Z,52.70
2023-03-25T01:49:34.405Z,53.66
2023-03-25T01:52:13.257Z,52.79
2023-03-25T01:54:42.173Z,51.98
2023-03-25T01:57:13.667Z,53.13
2023-03-25T01:59:42.258Z,53.86
2023-03-25T02:02:10.842Z,54.02
2023-03-25T02:05:00.158Z,53.56
2023-03-25T02:07:32.842Z,55.22
2023-03-25T02:10:04.875Z,57.43
2023-03-25T02:12:34.235Z,56.53
2023-03-25T02:15:03.912Z,58.09
2023-03-25T02:17:56.537Z,58.10
2023-03-25T02:20:33.246Z,57.89
2023-03-25T02:23:17.089Z,59.11
2023-03-25T02:26:05.451Z,58.37
2023-03-25T02:28:56.166Z,58.75
2023-03-25T02:32:08.152Z,58.24
2023-03-25T02:34:46.582Z,58.36
2023-03-25T02:37:46.899Z,59.60
2023-03-25T02:40:21.219Z,57.39
2023-03-25T02:42:54.032Z,58.56
2023-03-25T02:45:29.899Z,59.28
2023-03-25T02:48:03.136Z,58.77
2023-03-25T02:50:42.815Z,58.92
2023-03-25T02:53:18.945Z,57.13
2023-03-25T02:55:48.158Z,57.59
2023-03-25T02:58:18.156Z,57.11
2023-03-25T03:00:46.533Z,58.18
2023-03-25T03:03:15.653Z,58.35
2023-03-25T03:05:46.716Z,56.77
2023-03-25T03:08:24.279Z,57.24
2023-03-25T03:10:59.431Z,57.71
2023-03-25T03:13:36.939Z,58.85
2023-03-25T03:16:51.124Z,61.43
2023-03-25T03:19:41.016Z,60.71
2023-03-25T03:22:35.277Z,61.61
2023-03-25T03:25:24.247Z,61.89
2023-03-25T03:27:57.062Z,63.52
2023-03-25T03:30:46.954Z,64.60
2023-03-25T03:33:27.233Z,65.17
2023-03-25T03:36:07.694Z,65.58
2023-03-25T03:38:41.911Z,66.25
2023-03-25T03:41:13.501Z,66.55
2023-03-25T03:43:53.699Z,65.58
2023-03-25T03:46:28.052Z,65.41
2023-03-25T03:48:58.375Z,66.34
2023-03-25T03:51:37.323Z,65.33
2023-03-25T03:54:14.860Z,66.53
2023-03-25T03:57:07.650Z,66.12
2023-03-25T04:00:07.882Z,65.87
2023-03-25T04:02:50.819Z,66.44
2023-03-25T04:05:21.442Z,66.43
2023-03-25T04:08:00.909Z,67.12
2023-03-25T04:10:39.479Z,67.16
2023-03-25T04:13:13.974Z,67.13
2023-03-25T04:15:42.985Z,66.41
2023-03-25T04:18:14.426Z,66.31
2023-03-25T04:20:44.880Z,66.67
2023-03-25T04:23:16.648Z,66.90
2023-03-25T04:25:50.523Z,66.37
2023-03-25T04:28:19.744Z,65.75
2023-03-25T04:30:56.862Z,66.12
2023-03-25T04:33:25.553Z,65.00
2023-03-25T04:35:55.033Z,67.00
2023-03-25T04:38:22.650Z,66.46
2023-03-25T04:40:50.734Z,66.53
2023-03-25T04:43:19.369Z,65.51
2023-03-25T04:45:54.611Z,65.73
2023-03-25T04:48:33.159Z,66.16
2023-03-25T04:51:03.553Z,64.86
2023-03-25T04:53:31.545Z,65.38
2023-03-25T04:56:00.319Z,64.75
2023-03-25T04:58:29.175Z,65.67
2023-03-25T05:00:57.241Z,63.52
2023-03-25T05:03:25.370Z,63.84
2023-03-25T05:05:53.762Z,64.50
2023-03-25T05:08:23.979Z,64.60
2023-03-25T05:10:57.861Z,64.89
2023-03-25T05:13:27.144Z,64.43
2023-03-25T05:15:54.920Z,63.94
2023-03-25T05:18:22.537Z,64.00
2023-03-25T05:20:51.312Z,63.07
2023-03-25T05:23:23.687Z,62.94
2023-03-25T05:25:53.152Z,63.50
2023-03-25T05:28:25.943Z,62.96
2023-03-25T05:30:55.365Z,63.30
2023-03-25T05:33:23.138Z,62.49
2023-03-25T05:35:58.078Z,62.01
2023-03-25T05:38:27.227Z,61.36
2023-03-25T05:40:56.880Z,61.14
2023-03-25T05:43:29.359Z,60.39
2023-03-25T05:45:57.478Z,61.71
2023-03-25T05:48:28.004Z,61.69
2023-03-25T05:51:00.915Z,61.95
2023-03-25T05:56:11.990Z,61.61
2023-03-25T05:58:42.107Z,62.40
2023-03-25T06:01:25.478Z,62.37
2023-03-25T06:04:16.937Z,61.90
2023-03-25T06:06:45.494Z,62.44
2023-03-25T06:09:19.153Z,62.50
2023-03-25T06:11:53.545Z,61.87
2023-03-25T06:14:33.094Z,61.76
2023-03-25T06:17:07.698Z,61.78
2023-03-25T06:19:40.939Z,61.93
2023-03-25T06:22:31.012Z,62.16
2023-03-25T06:25:03.812Z,61.67
2023-03-25T06:27:34.939Z,60.93
2023-03-25T06:30:15.940Z,61.43
2023-03-25T06:32:44.332Z,60.44
2023-03-25T06:35:18.414Z,61.43
2023-03-25T06:37:49.348Z,61.01
2023-03-25T06:40:18.339Z,60.10
2023-03-25T06:42:57.883Z,60.42
2023-03-25T06:45:30.860Z,59.97
2023-03-25T06:48:00.500Z,59.85
2023-03-25T06:50:35.005Z,60.19
2023-03-25T06:53:06.658Z,60.48
2023-03-25T06:55:42.397Z,60.58
2023-03-25T06:58:12.861Z,60.99
2023-03-25T07:00:57.139Z,61.09
2023-03-25T07:03:40.629Z,60.90
2023-03-25T07:06:17.024Z,60.42
2023-03-25T07:08:46.965Z,60.69
2023-03-25T07:11:25.396Z,60.01
2023-03-25T07:14:06.978Z,59.67
2023-03-25T07:16:36.561Z,59.67
2023-03-25T07:19:18.303Z,58.90
2023-03-25T07:21:46.310Z,58.60
2023-03-25T07:24:15.918Z,58.55
2023-03-25T07:26:46.166Z,58.83
2023-03-25T07:29:15.009Z,57.89
2023-03-25T07:34:24.369Z,58.06
2023-03-25T07:36:59.230Z,57.65
2023-03-25T07:39:27.007Z,57.53
2023-03-25T07:41:57.343Z,55.67
2023-03-25T07:44:31.919Z,56.00
2023-03-25T07:47:06.925Z,56.13
2023-03-25T07:49:41.992Z,55.97
2023-03-25T07:55:01.943Z,55.06
2023-03-25T07:57:38.954Z,54.17
2023-03-25T08:00:08.453Z,52.96
2023-03-25T08:02:48.128Z,54.48
2023-03-25T08:05:23.093Z,51.88
2023-03-25T08:08:03.988Z,53.98
2023-03-25T08:13:19.544Z,52.24
2023-03-25T08:15:50.013Z,52.39
2023-03-25T08:18:25.813Z,53.46
2023-03-25T08:20:54.111Z,51.77
2023-03-25T08:23:27.922Z,49.83
2023-03-25T08:26:11.941Z,49.42
2023-03-25T08:28:42.981Z,49.91
2023-03-25T08:31:17.982Z,49.54
2023-03-25T08:33:50.018Z,47.70
2023-03-25T08:36:19.846Z,48.31
2023-03-25T08:41:35.966Z,45.67
2023-03-25T08:44:22.670Z,46.36
2023-03-25T08:46:52.566Z,48.13
2023-03-25T08:49:25.217Z,44.62
2023-03-25T08:52:02.053Z,45.94
2023-03-25T08:54:33.490Z,47.42
2023-03-25T08:57:03.033Z,48.88
2023-03-25T08:59:38.955Z,45.61
2023-03-25T09:02:14.531Z,45.87
2023-03-25T09:04:45.994Z,46.50
2023-03-25T09:07:16.995Z,46.21
2023-03-25T09:09:47.972Z,46.56
2023-03-25T09:12:23.989Z,44.73
2023-03-25T09:14:59.165Z,44.65
2023-03-25T09:17:28.219Z,45.48
2023-03-25T09:20:14.085Z,45.32
2023-03-25T09:22:42.981Z,43.81
2023-03-25T09:25:24.923Z,44.36
2023-03-25T09:27:56.043Z,42.51
2023-03-25T09:30:28.174Z,41.34
2023-03-25T09:33:04.639Z,42.52
2023-03-25T09:35:36.845Z,41.71
2023-03-25T09:40:53.086Z,39.97
2023-03-25T09:46:06.898Z,38.00
2023-03-25T09:48:43.032Z,39.00
2023-03-25T09:51:24.149Z,40.20
2023-03-25T09:56:59.931Z,39.79
2023-03-25T10:00:04.920Z,41.09
2023-03-25T10:05:31.963Z,40.63
2023-03-25T10:08:06.111Z,39.75
2023-03-25T10:11:02.585Z,40.57
2023-03-25T10:13:42.931Z,40.63
2023-03-25T10:16:37.312Z,41.11
2023-03-25T10:19:32.010Z,42.13
2023-03-25T10:22:07.895Z,40.85
2023-03-25T10:24:55.075Z,41.25
2023-03-25T10:30:30.070Z,40.30
2023-03-25T10:32:59.776Z,40.15
2023-03-25T10:35:37.910Z,40.39
2023-03-25T10:38:19.890Z,38.81
2023-03-25T10:40:50.949Z,38.80
2023-03-25T10:43:32.036Z,36.57
2023-03-25T10:46:09.913Z,37.26
2023-03-25T10:48:44.377Z,35.51
2023-03-25T10:51:21.171Z,34.88
2023-03-25T10:53:53.392Z,35.09
2023-03-25T10:56:36.006Z,35.81
2023-03-25T10:59:20.066Z,36.34
2023-03-25T11:02:00.237Z,35.92
2023-03-25T11:04:36.876Z,37.83
2023-03-25T11:07:16.685Z,36.83
2023-03-25T11:09:46.444Z,37.22
2023-03-25T11:12:40.581Z,36.40
2023-03-25T11:15:38.249Z,36.75
2023-03-25T11:18:34.965Z,36.77
2023-03-25T11:21:13.154Z,36.39
2023-03-25T11:23:53.979Z,36.75
2023-03-25T11:26:30.225Z,36.06
2023-03-25T11:29:02.715Z,36.33
2023-03-25T11:31:37.963Z,37.26
2023-03-25T11:34:17.814Z,36.82
2023-03-25T11:37:09.776Z,36.55
2023-03-25T11:39:50.034Z,35.79
2023-03-25T11:42:48.963Z,36.48
2023-03-25T11:45:36.018Z,36.68
2023-03-25T11:48:17.015Z,37.33
2023-03-25T11:50:58.114Z,37.17
2023-03-25T11:53:31.709Z,36.82
2023-03-25T11:56:07.804Z,37.43
2023-03-25T11:58:38.972Z,37.17
2023-03-25T12:01:22.682Z,37.74
2023-03-25T12:04:16.936Z,38.37
2023-03-25T12:07:14.944Z,38.28
2023-03-25T12:09:55.301Z,37.92
2023-03-25T12:12:42.929Z,39.19
2023-03-25T12:19:10.925Z,37.98
2023-03-25T12:22:01.971Z,38.54
2023-03-25T12:25:07.798Z,37.70
2023-03-25T12:27:53.445Z,37.48
2023-03-25T12:30:55.172Z,37.66
2023-03-25T12:33:32.685Z,38.26
2023-03-25T12:36:09.184Z,37.49
2023-03-25T12:39:18.249Z,36.52
2023-03-25T12:42:24.038Z,36.15
2023-03-25T12:45:20.831Z,35.08
2023-03-25T12:48:09.908Z,36.15
2023-03-25T12:51:09.281Z,35.62
2023-03-25T12:53:41.853Z,36.22
2023-03-25T12:56:24.109Z,34.26
2023-03-25T12:59:38.182Z,34.80
2023-03-25T13:02:34.215Z,36.20
2023-03-25T13:05:23.957Z,35.24
2023-03-25T13:08:28.241Z,35.15
2023-03-25T13:11:23.938Z,35.53
2023-03-25T13:14:06.964Z,35.36
2023-03-25T13:16:39.378Z,36.08
2023-03-25T13:19:32.901Z,35.78
2023-03-25T13:25:01.912Z,35.02
2023-03-25T13:27:39.033Z,34.77
2023-03-25T13:30:32.511Z,34.29
2023-03-25T13:33:14.655Z,33.83
2023-03-25T13:36:02.047Z,34.17
2023-03-25T13:38:55.886Z,33.00
2023-03-25T13:41:43.979Z,32.93
2023-03-25T13:44:29.992Z,34.46
2023-03-25T13:47:11.765Z,34.24
2023-03-25T13:49:58.955Z,33.57
2023-03-25T13:52:34.041Z,33.47
2023-03-25T13:55:44.886Z,34.06
2023-03-25T14:01:41.230Z,34.04
2023-03-25T14:04:28.592Z,35.09
2023-03-25T14:07:17.046Z,33.95
2023-03-25T14:10:04.066Z,34.37
2023-03-25T14:12:39.239Z,34.50
2023-03-25T14:15:17.930Z,35.53
2023-03-25T14:20:48.552Z,35.86
2023-03-25T14:23:21.222Z,35.30
2023-03-25T14:26:04.037Z,36.47
2023-03-25T14:28:38.996Z,35.71
2023-03-25T14:31:09.165Z,34.54
2023-03-25T14:34:03.214Z,35.40
2023-03-25T14:39:30.649Z,34.82
2023-03-25T14:42:08.623Z,34.75
2023-03-25T14:44:43.125Z,33.76
2023-03-25T14:47:30.446Z,33.67
2023-03-25T14:50:20.282Z,33.82
2023-03-25T14:52:52.133Z,32.98
2023-03-25T14:55:36.943Z,33.32
2023-03-25T14:58:20.354Z,32.06
2023-03-25T15:00:57.033Z,30.69
2023-03-25T15:03:36.162Z,30.91
2023-03-25T15:06:09.087Z,31.14
2023-03-25T15:08:54.065Z,31.47
2023-03-25T15:11:34.278Z,31.94
2023-03-25T15:19:28.589Z,33.19
2023-03-25T15:22:17.909Z,32.93
2023-03-25T15:24:51.309Z,33.23
2023-03-25T15:27:26.806Z,33.38
2023-03-25T15:30:29.274Z,34.36
2023-03-25T15:33:22.106Z,33.74
2023-03-25T15:36:09.466Z,34.45
2023-03-25T15:38:56.947Z,34.45
2023-03-25T15:41:58.261Z,33.69
2023-03-25T15:44:49.972Z,33.39
2023-03-25T15:47:23.785Z,33.95
2023-03-25T15:53:24.092Z,32.90
2023-03-25T15:56:34.407Z,33.34
2023-03-25T15:59:30.297Z,34.03
2023-03-25T16:04:52.374Z,32.86
2023-03-25T16:10:44.836Z,33.10
2023-03-25T16:13:25.058Z,32.76
2023-03-25T16:16:00.974Z,32.33
2023-03-25T16:18:37.976Z,32.97
2023-03-25T16:21:07.474Z,32.40
2023-03-25T16:23:46.591Z,32.14
2023-03-25T16:26:42.044Z,32.39
2023-03-25T16:29:25.092Z,32.24
2023-03-25T16:32:09.224Z,31.99
2023-03-25T16:34:41.959Z,32.47
2023-03-25T16:39:57.999Z,33.93
2023-03-25T16:42:35.498Z,33.01
2023-03-25T16:45:06.831Z,32.88
2023-03-25T16:47:42.789Z,32.13
2023-03-25T16:50:19.187Z,32.62
2023-03-25T16:52:49.878Z,33.15
2023-03-25T16:55:34.805Z,33.52
2023-03-25T16:58:19.176Z,33.26
2023-03-25T17:00:54.576Z,33.00
2023-03-25T17:04:17.978Z,33.00
2023-03-25T17:07:00.486Z,33.21
2023-03-25T17:09:36.201Z,34.37
2023-03-25T17:12:11.803Z,35.09
2023-03-25T17:14:43.946Z,35.06
2023-03-25T17:17:28.116Z,34.97
2023-03-25T17:20:13.000Z,36.03
2023-03-25T17:22:46.022Z,36.10
2023-03-25T17:25:36.014Z,36.36
2023-03-25T17:31:37.849Z,36.83
2023-03-25T17:34:21.821Z,36.84
2023-03-25T17:39:42.935Z,37.82
2023-03-25T17:42:27.274Z,37.79
2023-03-25T17:45:16.010Z,39.07
2023-03-25T17:47:51.666Z,38.53
2023-03-25T17:50:23.161Z,38.33
2023-03-25T17:52:51.063Z,38.70
2023-03-25T17:55:25.124Z,38.69
2023-03-25T17:57:56.355Z,38.93
2023-03-25T18:00:25.937Z,39.41
2023-03-25T18:05:42.993Z,39.19
2023-03-25T18:08:15.211Z,39.38
2023-03-25T18:10:45.916Z,39.45
2023-03-25T18:13:25.465Z,39.02
2023-03-25T18:15:54.225Z,39.37
2023-03-25T18:21:14.046Z,39.13
2023-03-25T18:26:34.447Z,37.89
2023-03-25T18:29:12.723Z,38.28
2023-03-25T18:31:48.087Z,38.73
2023-03-25T18:34:25.675Z,36.84
2023-03-25T18:37:02.279Z,37.62
2023-03-25T18:42:19.789Z,36.06
2023-03-25T18:44:49.335Z,36.16
2023-03-25T18:50:06.884Z,36.08
2023-03-25T18:52:35.411Z,36.52
2023-03-25T18:57:47.656Z,38.77
2023-03-25T19:00:32.138Z,40.12
2023-03-25T19:03:14.929Z,39.72
2023-03-25T19:05:45.459Z,40.62
2023-03-25T19:08:19.057Z,41.19
2023-03-25T19:10:57.386Z,41.55
2023-03-25T19:13:43.593Z,42.11
2023-03-25T19:16:21.101Z,42.67
2023-03-25T19:18:55.031Z,43.30
2023-03-25T19:21:22.981Z,44.16
2023-03-25T19:23:57.380Z,44.87
2023-03-25T19:26:28.358Z,44.46
2023-03-25T19:31:51.318Z,44.28
2023-03-25T19:34:25.249Z,43.91
2023-03-25T19:37:02.960Z,43.91
2023-03-25T19:39:33.918Z,45.12
2023-03-25T19:42:18.684Z,45.01
2023-03-25T19:44:54.900Z,45.45
2023-03-25T19:47:26.011Z,46.28
2023-03-25T19:49:57.136Z,47.00
2023-03-25T19:52:26.031Z,46.50
2023-03-25T19:54:58.194Z,47.67
2023-03-25T19:57:31.172Z,47.55
2023-03-25T20:00:14.309Z,48.57
2023-03-25T20:02:56.274Z,48.97
2023-03-25T20:05:26.958Z,49.59
2023-03-25T20:08:05.979Z,49.60
2023-03-25T20:13:18.342Z,49.29
2023-03-25T20:15:58.192Z,48.66
2023-03-25T20:18:29.142Z,47.95
2023-03-25T20:20:56.937Z,48.28
2023-03-25T20:23:35.022Z,48.74
2023-03-25T20:26:14.329Z,47.59
2023-03-25T20:28:49.752Z,48.26
2023-03-25T20:31:24.002Z,48.77
2023-03-25T20:34:00.911Z,47.74
2023-03-25T20:36:30.852Z,46.70
2023-03-25T20:39:06.059Z,46.78
2023-03-25T20:41:47.999Z,45.68
2023-03-25T20:44:16.831Z,46.64
2023-03-25T20:46:49.792Z,46.09
2023-03-25T20:49:21.874Z,46.29
2023-03-25T20:51:51.763Z,45.75
2023-03-25T20:54:23.156Z,45.01
2023-03-25T20:56:55.142Z,44.67
2023-03-25T20:59:27.950Z,44.75
2023-03-25T21:02:06.274Z,45.59
2023-03-25T21:04:39.197Z,44.97
2023-03-25T21:07:07.713Z,44.75
2023-03-25T21:09:38.905Z,44.38
2023-03-25T21:12:08.924Z,43.56
2023-03-25T21:14:38.381Z,43.44
2023-03-25T21:17:12.120Z,43.12
2023-03-25T21:19:44.160Z,43.18
2023-03-25T21:22:14.884Z,43.63
2023-03-25T21:24:43.230Z,43.50
2023-03-25T21:27:17.647Z,43.68
2023-03-25T21:29:47.443Z,43.79
2023-03-25T21:32:17.466Z,43.86
2023-03-25T21:34:47.285Z,44.46
2023-03-25T21:37:16.536Z,44.15
2023-03-25T21:39:44.736Z,44.40
2023-03-25T21:42:12.998Z,44.39
2023-03-25T21:44:44.041Z,44.54
2023-03-25T21:47:14.504Z,44.75
2023-03-25T21:49:44.370Z,44.30
2023-03-25T21:52:13.268Z,44.11
2023-03-25T21:54:44.175Z,44.44
2023-03-25T21:57:17.439Z,44.14
2023-03-25T21:59:46.535Z,44.34
2023-03-25T22:02:14.974Z,44.50
2023-03-25T22:04:44.996Z,44.37
2023-03-25T22:07:24.202Z,44.44
2023-03-25T22:09:52.643Z,44.45
2023-03-25T22:12:20.905Z,44.86
2023-03-25T22:14:50.051Z,44.57
2023-03-25T22:17:19.057Z,45.35
2023-03-25T22:19:50.952Z,45.02
2023-03-25T22:22:25.277Z,45.61
2023-03-25T22:24:53.686Z,46.01
2023-03-25T22:27:22.183Z,45.79
2023-03-25T22:29:50.159Z,45.49
2023-03-25T22:32:18.452Z,45.98
2023-03-25T22:34:52.373Z,46.60
2023-03-25T22:37:27.145Z,46.11
2023-03-25T22:39:55.089Z,46.77
2023-03-25T22:42:25.853Z,46.68
2023-03-25T22:44:53.872Z,46.84
2023-03-25T22:47:26.999Z,47.37
2023-03-25T22:49:57.003Z,46.53
2023-03-25T22:52:26.982Z,46.98
2023-03-25T22:54:59.990Z,47.57
2023-03-25T22:57:28.952Z,47.55
2023-03-25T22:59:56.957Z,46.30
2023-03-25T23:02:24.826Z,47.50
2023-03-25T23:04:54.824Z,47.45
2023-03-25T23:07:22.961Z,47.26
2023-03-25T23:09:50.790Z,47.51
2023-03-25T23:12:24.877Z,47.70
2023-03-25T23:14:56.500Z,48.61
2023-03-25T23:17:26.886Z,48.42
2023-03-25T23:19:55.420Z,48.60
2023-03-25T23:22:23.103Z,47.59
2023-03-25T23:24:51.036Z,47.72
2023-03-25T23:27:19.932Z,49.37
2023-03-25T23:29:53.200Z,48.86
2023-03-25T23:32:22.175Z,48.83
2023-03-25T23:34:49.566Z,48.27
2023-03-25T23:37:18.599Z,48.38
2023-03-25T23:39:46.949Z,48.73
2023-03-25T23:42:18.298Z,48.65
2023-03-25T23:44:49.966Z,49.29
2023-03-25T23:47:19.914Z,49.85
2023-03-25T23:49:58.088Z,49.68
2023-03-25T23:52:25.785Z,49.22
2023-03-25T23:54:53.811Z,49.41
2023-03-25T23:57:22.896Z,49.22
2023-03-25T23:59:51.521Z,49.15
